Time;durP1;ratioP1;P1;durP2;ratioP2;P2;SDS_P1;SDS_P2;PMS_P1;PMS_P2;Temp;Humidity;BMP_temperature;BMP_pressure;BME280_temperature;BME280_humidity;BME280_pressure;Samples;Min_cycle;Max_cycle;Signal;HPM_P1;HPM_P2
2023/02/23 00:02:16;;;;;;;9.80;8.30;;;10.70;36.70;;;;;;10366517;28;20230;-74
2023/02/23 00:07:19;;;;;;;11.03;8.70;;;10.70;37.00;;;;;;10363163;28;20242;-74
2023/02/23 00:12:22;;;;;;;9.90;8.73;;;10.60;36.60;;;;;;10362047;28;20230;-73
2023/02/23 00:17:30;;;;;;;11.57;8.97;;;10.60;36.80;;;;;;10364769;28;20237;-74
2023/02/23 00:22:33;;;;;;;10.37;8.50;;;10.60;37.10;;;;;;10361482;28;20699;-74
2023/02/23 00:27:37;;;;;;;10.73;9.30;;;10.60;36.80;;;;;;10363194;28;20528;-74
2023/02/23 00:32:42;;;;;;;11.90;9.20;;;10.50;36.90;;;;;;10360435;28;20238;-74
2023/02/23 00:37:46;;;;;;;10.53;9.37;;;10.40;37.30;;;;;;10362569;28;20230;-74
2023/02/23 00:42:51;;;;;;;11.37;9.43;;;10.40;37.10;;;;;;10362040;28;20245;-74
2023/02/23 00:47:55;;;;;;;13.47;10.43;;;10.30;37.10;;;;;;10362736;28;20253;-74
2023/02/23 00:52:58;;;;;;;11.53;9.47;;;10.30;37.40;;;;;;10361567;28;20231;-74
2023/02/23 00:58:03;;;;;;;11.33;10.03;;;10.30;37.20;;;;;;10362678;28;20737;-74
2023/02/23 01:03:07;;;;;;;11.87;9.37;;;10.30;37.20;;;;;;10360004;28;20222;-73
2023/02/23 01:08:11;;;;;;;14.53;10.90;;;10.30;37.50;;;;;;10361450;28;20230;-73
2023/02/23 01:13:14;;;;;;;11.80;9.30;;;10.30;37.20;;;;;;10360053;28;20230;-74
2023/02/23 01:18:20;;;;;;;11.27;10.07;;;10.30;37.10;;;;;;10360732;28;20660;-73
2023/02/23 01:23:23;;;;;;;14.27;12.10;;;10.30;37.40;;;;;;10358725;28;20226;-74
2023/02/23 01:28:26;;;;;;;11.90;10.63;;;10.30;37.20;;;;;;10358946;28;20711;-74
2023/02/23 01:33:31;;;;;;;11.97;10.57;;;10.30;37.30;;;;;;10360481;28;20265;-74
2023/02/23 01:38:34;;;;;;;13.83;10.87;;;10.20;37.60;;;;;;10357531;28;20234;-74
2023/02/23 01:43:56;;;;;;;12.20;11.00;;;10.20;37.40;;;;;;10359227;28;20226;-74
2023/02/23 01:49:02;;;;;;;12.53;11.33;;;10.20;38.50;;;;;;10359961;28;20613;-74
2023/02/23 01:54:10;;;;;;;12.13;10.93;;;10.20;37.90;;;;;;10358283;28;20233;-73
2023/02/23 01:59:15;;;;;;;13.27;11.33;;;10.20;37.90;;;;;;10361000;28;20238;-73
2023/02/23 02:04:21;;;;;;;13.47;12.03;;;10.20;37.70;;;;;;10358421;28;20322;-74
2023/02/23 02:09:27;;;;;;;14.53;11.70;;;10.20;38.10;;;;;;10358267;28;20237;-74
2023/02/23 02:14:31;;;;;;;13.67;12.27;;;10.20;37.80;;;;;;10357636;28;20320;-74
2023/02/23 02:20:31;;;;;;;13.03;11.40;;;10.20;38.00;;;;;;10359059;28;20590;-74
2023/02/23 02:25:55;;;;;;;13.23;11.83;;;10.20;38.70;;;;;;10329689;28;20256;-74
2023/02/23 02:31:44;;;;;;;12.40;11.10;;;10.20;38.70;;;;;;10356382;28;20229;-74
2023/02/23 02:37:18;;;;;;;11.83;10.67;;;10.20;38.40;;;;;;10310384;28;20702;-74
2023/02/23 02:42:29;;;;;;;13.00;11.70;;;10.20;38.80;;;;;;10353059;28;20218;-74
2023/02/23 02:47:38;;;;;;;13.97;12.43;;;10.10;38.50;;;;;;10357621;28;20326;-74
2023/02/23 02:52:48;;;;;;;14.40;12.93;;;10.10;38.50;;;;;;10360433;28;20234;-74
2023/02/23 02:57:56;;;;;;;14.70;13.20;;;10.10;38.70;;;;;;10357357;28;20741;-74
2023/02/23 04:18:44;;;;;;;16.10;13.70;;;10.30;38.90;;;;;;10361856;28;20229;-74
2023/02/23 04:23:47;;;;;;;15.70;14.10;;;10.30;38.40;;;;;;10362035;28;20718;-74
2023/02/23 04:28:52;;;;;;;16.30;13.50;;;10.30;38.60;;;;;;10362390;28;20230;-74
2023/02/23 04:33:55;;;;;;;14.57;12.20;;;10.30;38.80;;;;;;10362145;28;20229;-74
2023/02/23 04:38:58;;;;;;;15.83;14.03;;;10.30;38.50;;;;;;10362225;28;20246;-74
2023/02/23 04:44:03;;;;;;;16.30;14.60;;;10.30;38.60;;;;;;10360754;28;20597;-74
2023/02/23 04:49:06;;;;;;;17.70;14.90;;;10.30;39.00;;;;;;10362458;28;20240;-73
2023/02/23 04:54:10;;;;;;;16.43;14.40;;;10.30;38.60;;;;;;10360736;28;20718;-73
2023/02/23 04:59:14;;;;;;;16.67;14.93;;;10.40;38.70;;;;;;10362562;28;20234;-74
2023/02/23 05:04:17;;;;;;;16.90;15.00;;;10.30;38.90;;;;;;10360204;28;20233;-73
2023/02/23 05:09:20;;;;;;;18.13;16.23;;;10.30;38.80;;;;;;10362704;28;20238;-73
2023/02/23 05:14:25;;;;;;;17.03;15.23;;;10.30;39.00;;;;;;10360359;28;20238;-74
2023/02/23 05:19:29;;;;;;;15.17;13.60;;;10.30;39.30;;;;;;10360340;28;20240;-74
2023/02/23 05:24:32;;;;;;;15.63;13.83;;;10.30;39.00;;;;;;10358955;28;20280;-74
2023/02/23 05:29:37;;;;;;;15.07;13.47;;;10.40;39.00;;;;;;10359511;28;20710;-74
2023/02/23 05:34:40;;;;;;;14.87;12.67;;;10.40;39.20;;;;;;10359124;28;20230;-74
2023/02/23 05:39:44;;;;;;;18.83;14.47;;;10.40;38.90;;;;;;10359581;28;20490;-74
2023/02/23 05:44:48;;;;;;;19.63;14.73;;;10.50;38.90;;;;;;10359679;28;20230;-74
2023/02/23 05:49:51;;;;;;;16.83;13.67;;;10.50;39.20;;;;;;10359908;28;20230;-74
2023/02/23 05:54:55;;;;;;;16.43;14.73;;;10.40;38.70;;;;;;10359470;28;20238;-74
2023/02/23 05:59:59;;;;;;;18.23;16.27;;;10.40;38.90;;;;;;10359664;28;20737;-74
2023/02/23 06:05:04;;;;;;;14.53;13.13;;;10.40;39.40;;;;;;10360192;28;20245;-73
2023/02/23 06:10:08;;;;;;;16.70;15.00;;;10.40;39.10;;;;;;10357995;28;20253;-73
2023/02/23 06:15:13;;;;;;;15.53;14.03;;;10.40;39.10;;;;;;10357622;28;20604;-74
2023/02/23 06:20:16;;;;;;;15.73;13.87;;;10.40;39.40;;;;;;10358194;28;20233;-74
2023/02/23 06:25:20;;;;;;;17.00;15.20;;;10.40;39.20;;;;;;10358406;28;20719;-74
2023/02/23 06:30:25;;;;;;;15.63;14.03;;;10.40;39.30;;;;;;10355399;28;20227;-74
2023/02/23 06:35:28;;;;;;;16.60;14.50;;;10.40;39.50;;;;;;10357630;28;20290;-73
2023/02/23 06:40:31;;;;;;;19.10;15.57;;;10.40;39.30;;;;;;10358167;28;20699;-74
2023/02/23 06:45:36;;;;;;;19.20;15.43;;;10.40;39.30;;;;;;10358491;28;20226;-74
2023/02/23 06:50:39;;;;;;;17.07;15.10;;;10.50;39.70;;;;;;10366135;28;20226;-74
2023/02/23 06:55:42;;;;;;;17.57;15.67;;;10.50;39.40;;;;;;10365376;28;20250;-74
2023/02/23 07:00:46;;;;;;;20.63;16.73;;;10.50;39.60;;;;;;10366446;28;20594;-74
2023/02/23 07:05:50;;;;;;;19.80;16.00;;;10.50;40.10;;;;;;10363143;28;20241;-74
2023/02/23 07:10:53;;;;;;;21.10;16.53;;;10.60;39.90;;;;;;10366378;28;20226;-74
2023/02/23 07:15:58;;;;;;;17.53;15.77;;;10.60;39.90;;;;;;10364005;28;20230;-74
2023/02/23 07:21:01;;;;;;;17.57;15.70;;;10.60;41.20;;;;;;10364874;28;20285;-74
2023/02/23 07:26:05;;;;;;;16.53;14.77;;;10.70;40.00;;;;;;10364409;28;20230;-73
2023/02/23 07:31:09;;;;;;;16.07;14.27;;;10.80;40.00;;;;;;10364748;28;20541;-73
2023/02/23 07:36:12;;;;;;;18.97;15.73;;;10.80;40.60;;;;;;10364310;28;20657;-74
2023/02/23 07:41:15;;;;;;;20.53;17.67;;;10.90;40.10;;;;;;10363772;28;20273;-74
2023/02/23 07:46:20;;;;;;;20.80;17.97;;;11.00;40.20;;;;;;10364243;28;20237;-74
2023/02/23 07:51:24;;;;;;;20.27;18.10;;;11.00;40.80;;;;;;10364133;28;20233;-74
2023/02/23 07:56:28;;;;;;;20.60;18.30;;;11.10;40.80;;;;;;10361133;28;20730;-74
2023/02/23 08:01:32;;;;;;;20.77;17.83;;;11.10;40.50;;;;;;10364386;28;20592;-74
2023/02/23 08:06:35;;;;;;;20.40;18.10;;;11.20;41.00;;;;;;10362834;28;20772;-74
2023/02/23 08:11:39;;;;;;;20.37;17.97;;;11.20;40.70;;;;;;10363458;28;20222;-74
2023/02/23 08:16:44;;;;;;;20.77;18.57;;;11.30;40.80;;;;;;10363002;28;20625;-74
2023/02/23 08:21:48;;;;;;;20.97;18.70;;;11.30;41.10;;;;;;10360610;28;20770;-74
2023/02/23 08:26:51;;;;;;;21.03;18.60;;;11.50;41.30;;;;;;10360150;28;20227;-74
2023/02/23 08:31:56;;;;;;;22.03;18.63;;;11.50;41.30;;;;;;10362335;28;20230;-74
2023/02/23 08:36:59;;;;;;;20.00;17.93;;;11.70;41.40;;;;;;10360569;28;20581;-74
2023/02/23 08:42:03;;;;;;;19.70;17.57;;;11.70;41.40;;;;;;10360322;28;20587;-73
2023/02/23 08:47:07;;;;;;;19.33;16.67;;;11.90;41.50;;;;;;10361331;28;20692;-74
2023/02/23 08:52:10;;;;;;;19.00;17.13;;;12.00;41.70;;;;;;10362188;28;20237;-73
2023/02/23 08:57:14;;;;;;;19.43;16.37;;;12.20;41.20;;;;;;10359964;28;20230;-74
2023/02/23 09:02:18;;;;;;;20.37;18.20;;;12.30;41.20;;;;;;10361222;28;20222;-73
2023/02/23 09:07:23;;;;;;;20.50;17.97;;;12.40;41.40;;;;;;10358167;28;20257;-74
2023/02/23 09:12:26;;;;;;;19.33;17.33;;;12.50;41.10;;;;;;10360677;28;20230;-74
2023/02/23 09:17:31;;;;;;;18.00;16.10;;;12.60;41.00;;;;;;10360164;28;20289;-73
2023/02/23 09:22:34;;;;;;;18.43;16.53;;;12.70;41.10;;;;;;10359678;28;20778;-74
2023/02/23 09:27:38;;;;;;;18.20;16.33;;;12.80;41.00;;;;;;10358547;28;20230;-74
2023/02/23 09:32:44;;;;;;;18.97;17.00;;;12.90;41.00;;;;;;10358913;28;20233;-74
2023/02/23 09:37:48;;;;;;;18.73;16.93;;;13.00;41.40;;;;;;10358469;28;20231;-74
2023/02/23 09:43:01;;;;;;;17.87;15.97;;;13.00;41.00;;;;;;10359656;28;20241;-74
2023/02/23 09:48:15;;;;;;;18.70;16.83;;;13.10;41.60;;;;;;10361164;28;20253;-73
2023/02/23 09:53:40;;;;;;;18.17;16.30;;;13.30;42.10;;;;;;10359074;28;20230;-74
2023/02/23 09:58:44;;;;;;;17.53;15.73;;;13.40;42.00;;;;;;10356780;28;20230;-74
2023/02/23 10:03:54;;;;;;;15.80;14.27;;;13.50;41.20;;;;;;10361386;28;20233;-74
2023/02/23 10:09:09;;;;;;;16.70;14.60;;;13.70;41.70;;;;;;10358588;28;20226;-74
2023/02/23 10:14:25;;;;;;;17.33;15.63;;;13.90;41.90;;;;;;10358202;28;20226;-73
2023/02/23 10:19:37;;;;;;;15.27;13.77;;;14.10;41.60;;;;;;10358810;28;20222;-74
2023/02/23 10:24:44;;;;;;;15.67;14.07;;;14.20;41.30;;;;;;10357793;28;20237;-75
2023/02/23 10:29:51;;;;;;;15.20;13.70;;;14.40;41.10;;;;;;10356718;28;20729;-74
2023/02/23 10:34:56;;;;;;;14.57;13.17;;;14.50;41.10;;;;;;10358361;28;20832;-74
2023/02/23 10:39:59;;;;;;;14.60;13.20;;;14.50;40.90;;;;;;10358285;28;20229;-74
2023/02/23 10:45:02;;;;;;;14.33;12.90;;;14.60;40.70;;;;;;10359015;28;20227;-73
2023/02/23 10:50:10;;;;;;;14.87;13.47;;;14.70;40.60;;;;;;10357157;28;20681;-74
2023/02/23 10:55:24;;;;;;;14.97;13.43;;;14.80;40.60;;;;;;10358365;28;20233;-73
2023/02/23 11:00:31;;;;;;;15.13;13.63;;;14.90;40.50;;;;;;10358964;28;20591;-74
2023/02/23 11:05:45;;;;;;;16.63;15.03;;;14.90;40.50;;;;;;10355807;28;20678;-74
2023/02/23 11:11:00;;;;;;;15.77;14.30;;;14.90;40.30;;;;;;10356225;28;20231;-74
2023/02/23 11:16:08;;;;;;;14.53;13.20;;;14.90;40.30;;;;;;10356728;28;20229;-73
2023/02/23 11:21:21;;;;;;;15.03;13.67;;;15.00;40.40;;;;;;10357170;28;20249;-73
2023/02/23 11:26:36;;;;;;;16.10;14.50;;;15.00;40.20;;;;;;10358700;28;20265;-74
2023/02/23 11:31:41;;;;;;;14.07;12.77;;;15.00;40.30;;;;;;10358055;28;20299;-74
2023/02/23 11:36:58;;;;;;;13.93;12.53;;;15.00;40.10;;;;;;10365113;28;20272;-74
2023/02/23 11:42:16;;;;;;;14.50;13.10;;;15.10;40.30;;;;;;10363307;28;20678;-71
2023/02/23 11:47:22;;;;;;;13.43;12.13;;;15.10;40.10;;;;;;10363688;28;20741;-74
2023/02/23 11:52:27;;;;;;;13.37;12.17;;;15.20;40.00;;;;;;10363723;28;20837;-74
2023/02/23 11:57:33;;;;;;;13.77;12.37;;;15.20;40.00;;;;;;10362768;28;20234;-74
2023/02/23 12:02:47;;;;;;;14.57;13.07;;;15.30;40.00;;;;;;10363704;28;20226;-74
2023/02/23 12:07:58;;;;;;;14.27;12.87;;;15.30;39.80;;;;;;10362082;28;20237;-74
2023/02/23 12:13:09;;;;;;;13.50;12.10;;;15.30;39.80;;;;;;10361739;28;20241;-74
2023/02/23 12:18:25;;;;;;;13.20;11.93;;;15.30;39.90;;;;;;10362960;28;20230;-74
2023/02/23 12:23:33;;;;;;;13.67;12.37;;;15.30;40.00;;;;;;10361694;28;20584;-74
2023/02/23 12:28:41;;;;;;;13.07;11.87;;;15.30;39.80;;;;;;10361838;28;20234;-74
2023/02/23 12:33:48;;;;;;;12.33;11.17;;;15.30;39.60;;;;;;10362785;28;20222;-74
2023/02/23 12:38:59;;;;;;;11.20;10.23;;;15.30;39.70;;;;;;10361762;28;20237;-74
2023/02/23 12:44:14;;;;;;;12.73;11.50;;;15.30;39.50;;;;;;10360620;28;20721;-73
2023/02/23 12:49:24;;;;;;;11.90;10.80;;;15.30;40.00;;;;;;10361875;28;20752;-74
2023/02/23 12:54:29;;;;;;;11.83;10.63;;;15.30;39.90;;;;;;10360616;28;20248;-74
2023/02/23 13:00:19;;;;;;;11.03;10.00;;;15.30;40.00;;;;;;10361956;28;20246;-74
2023/02/23 13:05:27;;;;;;;10.57;9.60;;;15.30;40.00;;;;;;10361981;28;20241;-74
2023/02/23 13:10:39;;;;;;;10.17;9.17;;;15.40;39.80;;;;;;10359823;28;20253;-73
2023/02/23 13:15:56;;;;;;;11.17;10.07;;;15.40;39.50;;;;;;10358099;28;20527;-74
2023/02/23 13:21:07;;;;;;;10.37;9.37;;;15.50;39.40;;;;;;10360470;28;20256;-74
2023/02/23 13:26:23;;;;;;;10.27;9.33;;;15.50;39.50;;;;;;10357048;28;20236;-74
2023/02/23 13:31:29;;;;;;;9.63;8.73;;;15.40;39.60;;;;;;10359288;28;20230;-74
2023/02/23 13:36:35;;;;;;;9.80;8.90;;;15.50;39.70;;;;;;10359415;28;20375;-74
2023/02/23 13:41:44;;;;;;;9.33;8.53;;;15.50;39.30;;;;;;10358674;28;20226;-74
2023/02/23 13:46:52;;;;;;;8.77;7.97;;;15.50;39.50;;;;;;10358522;28;20226;-74
2023/02/23 13:51:59;;;;;;;9.93;9.03;;;15.50;39.40;;;;;;10359868;28;20234;-74
2023/02/23 13:57:15;;;;;;;8.60;7.80;;;15.50;39.30;;;;;;10357711;28;20275;-73
2023/02/23 14:02:33;;;;;;;9.33;8.43;;;15.50;39.10;;;;;;10358907;28;20320;-74
2023/02/23 14:07:43;;;;;;;8.77;8.00;;;15.60;39.10;;;;;;10353002;28;20500;-74
2023/02/23 14:13:24;;;;;;;8.83;8.03;;;15.60;39.80;;;;;;10352834;28;20276;-74
2023/02/23 14:18:31;;;;;;;8.50;7.60;;;15.60;39.20;;;;;;10359426;28;20233;-74
2023/02/23 14:23:49;;;;;;;9.67;8.83;;;15.60;39.20;;;;;;10358849;28;20648;-74
2023/02/23 14:29:24;;;;;;;8.17;7.47;;;15.60;40.00;;;;;;10357534;28;20265;-74
2023/02/23 14:34:46;;;;;;;9.33;8.53;;;15.70;39.40;;;;;;10358407;28;20233;-74
2023/02/23 14:39:51;;;;;;;7.83;7.13;;;15.70;39.40;;;;;;10356632;28;20735;-74
2023/02/23 14:44:56;;;;;;;7.90;7.20;;;15.70;38.90;;;;;;10358005;28;20234;-74
2023/02/23 14:50:01;;;;;;;8.00;7.20;;;15.70;38.80;;;;;;10358103;28;20233;-74
2023/02/23 14:55:21;;;;;;;7.30;6.67;;;15.70;38.90;;;;;;10358146;28;20957;-73
2023/02/23 15:00:27;;;;;;;7.00;6.40;;;15.70;38.70;;;;;;10359869;28;20684;-74
2023/02/23 15:05:34;;;;;;;7.80;7.00;;;15.80;38.80;;;;;;10357310;28;20671;-74
2023/02/23 15:10:39;;;;;;;7.30;6.70;;;15.80;38.60;;;;;;10364045;28;20234;-74
2023/02/23 15:15:46;;;;;;;7.03;5.83;;;15.80;38.80;;;;;;10364488;28;20743;-74
2023/02/23 15:20:50;;;;;;;5.63;5.13;;;15.80;38.80;;;;;;10362517;28;20231;-73
2023/02/23 15:25:53;;;;;;;5.73;5.23;;;15.80;38.80;;;;;;10365579;28;20695;-74
2023/02/23 15:31:01;;;;;;;5.47;4.97;;;15.80;38.50;;;;;;10359652;28;20237;-74
2023/02/23 15:36:09;;;;;;;5.70;5.20;;;15.80;38.20;;;;;;10362098;28;20321;-74
2023/02/23 15:41:21;;;;;;;8.17;7.00;;;15.80;38.20;;;;;;10362420;28;20237;-74
2023/02/23 15:46:29;;;;;;;6.90;6.20;;;15.80;38.30;;;;;;10366796;28;20592;-74
2023/02/23 15:51:36;;;;;;;5.93;5.43;;;15.70;38.30;;;;;;10363167;28;20234;-74
2023/02/23 15:56:40;;;;;;;6.73;5.93;;;15.70;38.50;;;;;;10363593;28;20599;-74
2023/02/23 16:01:46;;;;;;;6.23;5.67;;;15.70;38.60;;;;;;10363479;28;20687;-74
2023/02/23 16:06:52;;;;;;;5.87;5.37;;;15.70;38.50;;;;;;10363047;28;20237;-74
2023/02/23 16:12:00;;;;;;;7.47;6.57;;;15.70;38.60;;;;;;10361618;28;20253;-74
2023/02/23 16:17:05;;;;;;;7.50;6.80;;;15.70;38.50;;;;;;10360470;28;20245;-74
2023/02/23 16:22:21;;;;;;;7.13;6.43;;;15.70;38.50;;;;;;10360828;28;20595;-74
2023/02/23 16:27:25;;;;;;;7.63;6.83;;;15.70;38.30;;;;;;10360092;28;20234;-74
2023/02/23 16:32:41;;;;;;;7.60;6.73;;;15.70;38.60;;;;;;10357845;28;20230;-74
2023/02/23 16:37:57;;;;;;;6.90;6.27;;;15.70;38.20;;;;;;10359867;28;20237;-74
2023/02/23 16:43:00;;;;;;;6.07;5.53;;;15.70;38.20;;;;;;10360879;28;20594;-74
2023/02/23 16:48:10;;;;;;;8.50;7.03;;;15.60;38.40;;;;;;10359604;28;20721;-73
2023/02/23 16:53:14;;;;;;;9.60;8.70;;;15.60;38.40;;;;;;10361297;28;20222;-74
2023/02/23 16:58:20;;;;;;;11.20;10.10;;;15.60;38.40;;;;;;10356473;28;20257;-74
2023/02/23 17:03:26;;;;;;;11.23;10.07;;;15.70;38.60;;;;;;10362030;28;20238;-74
2023/02/23 17:08:30;;;;;;;9.77;8.67;;;15.60;38.40;;;;;;10356479;28;20604;-74
2023/02/23 17:13:33;;;;;;;8.97;8.07;;;15.60;38.40;;;;;;10358220;28;20794;-74
2023/02/23 17:18:39;;;;;;;7.97;7.20;;;15.60;38.50;;;;;;10361112;28;20237;-74
2023/02/23 17:23:49;;;;;;;8.47;7.60;;;15.60;38.40;;;;;;10358954;28;20227;-74
2023/02/23 17:28:52;;;;;;;9.33;7.33;;;15.60;38.40;;;;;;10360600;28;20230;-74
2023/02/23 17:33:57;;;;;;;9.97;8.80;;;15.60;38.40;;;;;;10356611;28;20261;-74
2023/02/23 17:39:01;;;;;;;18.73;15.30;;;15.50;38.40;;;;;;10359066;28;20237;-74
2023/02/23 17:44:04;;;;;;;17.37;15.57;;;15.50;38.50;;;;;;10359050;28;20218;-73
2023/02/23 17:49:09;;;;;;;16.33;14.03;;;15.50;38.50;;;;;;10360340;28;20317;-73
2023/02/23 17:54:12;;;;;;;16.53;14.90;;;15.50;38.60;;;;;;10358303;28;20238;-74
2023/02/23 17:59:15;;;;;;;12.87;11.53;;;15.40;38.50;;;;;;10358049;28;20300;-74
2023/02/23 18:04:20;;;;;;;13.63;11.93;;;15.40;38.60;;;;;;10357957;28;20230;-73
2023/02/23 18:09:24;;;;;;;11.37;10.27;;;15.40;38.60;;;;;;10357070;28;20234;-74
2023/02/23 18:14:27;;;;;;;12.70;10.70;;;15.30;38.60;;;;;;10357458;28;20226;-74
2023/02/23 18:19:32;;;;;;;11.37;10.17;;;15.30;38.60;;;;;;10358333;28;20650;-74
2023/02/23 18:24:37;;;;;;;9.47;8.43;;;15.20;38.50;;;;;;10356560;28;20222;-74
2023/02/23 18:29:40;;;;;;;11.87;10.67;;;15.20;38.50;;;;;;10355867;28;20249;-74
2023/02/23 18:34:44;;;;;;;14.13;12.70;;;15.10;38.40;;;;;;10358042;28;20263;-74
2023/02/23 18:39:52;;;;;;;21.10;18.97;;;15.00;38.50;;;;;;10357311;28;20230;-71
2023/02/23 18:44:55;;;;;;;16.70;15.10;;;14.90;38.60;;;;;;10365756;28;20238;-71
2023/02/23 18:50:00;;;;;;;13.50;12.10;;;14.80;38.50;;;;;;10362669;28;20230;-71
2023/02/23 18:55:04;;;;;;;13.20;10.73;;;14.80;38.80;;;;;;10366985;28;20228;-71
2023/02/23 19:00:12;;;;;;;11.13;10.13;;;14.80;38.80;;;;;;10365337;28;20722;-71
2023/02/23 19:05:17;;;;;;;11.13;10.03;;;14.70;38.90;;;;;;10364612;28;20234;-71
2023/02/23 19:10:23;;;;;;;8.50;7.70;;;14.70;39.00;;;;;;10363056;28;20225;-71
2023/02/23 19:15:27;;;;;;;13.67;12.20;;;14.70;38.90;;;;;;10364122;28;20239;-71
2023/02/23 19:20:34;;;;;;;13.27;11.87;;;14.60;38.80;;;;;;10361753;28;20296;-71
2023/02/23 19:25:37;;;;;;;10.27;8.77;;;14.60;38.80;;;;;;10364626;28;20728;-71
2023/02/23 19:30:44;;;;;;;14.33;12.63;;;14.60;38.80;;;;;;10362450;28;20226;-71
2023/02/23 19:35:49;;;;;;;14.30;12.53;;;14.60;38.80;;;;;;10362613;28;20621;-71
2023/02/23 19:40:52;;;;;;;13.37;10.80;;;14.50;38.80;;;;;;10362221;28;20588;-71
2023/02/23 19:45:55;;;;;;;14.67;13.00;;;14.40;38.60;;;;;;10364679;28;20240;-71
2023/02/23 19:51:00;;;;;;;15.30;12.17;;;14.30;38.60;;;;;;10362520;28;20707;-71
2023/02/23 19:56:06;;;;;;;13.27;10.87;;;14.30;38.70;;;;;;10359847;28;20230;-71
2023/02/23 20:01:13;;;;;;;21.57;17.23;;;14.30;38.70;;;;;;10362968;28;20230;-71
2023/02/23 20:06:18;;;;;;;27.33;24.43;;;14.20;38.40;;;;;;10361846;28;20714;-71
2023/02/23 20:11:21;;;;;;;17.03;15.33;;;14.10;39.10;;;;;;10362649;28;20601;-71
2023/02/23 20:16:28;;;;;;;14.93;13.43;;;14.00;38.30;;;;;;10361778;28;20249;-71
2023/02/23 20:21:33;;;;;;;11.90;10.77;;;13.90;38.30;;;;;;10360163;28;20245;-71
2023/02/23 20:26:36;;;;;;;10.93;9.93;;;13.80;38.30;;;;;;10360703;28;20328;-71
2023/02/23 20:31:45;;;;;;;12.57;11.37;;;13.80;38.30;;;;;;10360081;28;20604;-71
2023/02/23 20:36:50;;;;;;;19.03;15.43;;;13.70;38.30;;;;;;10359958;28;20250;-71
2023/02/23 20:41:53;;;;;;;21.57;17.37;;;13.60;38.20;;;;;;10362269;28;20234;-71
2023/02/23 20:46:57;;;;;;;19.50;15.53;;;13.50;38.00;;;;;;10362323;28;20234;-71
2023/02/23 20:52:02;;;;;;;19.93;16.47;;;13.40;38.00;;;;;;10363028;28;20253;-71
2023/02/23 20:57:07;;;;;;;14.43;13.03;;;13.30;38.10;;;;;;10360895;28;20336;-71
2023/02/23 21:02:12;;;;;;;15.30;12.93;;;13.20;38.00;;;;;;10358758;28;20334;-71
2023/02/23 21:07:17;;;;;;;16.10;13.20;;;13.10;38.00;;;;;;10359841;28;20234;-71
2023/02/23 21:12:20;;;;;;;14.63;12.63;;;13.10;38.10;;;;;;10358664;28;20593;-71
2023/02/23 21:17:23;;;;;;;13.80;11.50;;;13.00;38.10;;;;;;10361350;28;20234;-71
2023/02/23 21:22:28;;;;;;;14.43;13.03;;;12.90;38.90;;;;;;10359744;28;20241;-71
2023/02/23 21:27:31;;;;;;;13.07;11.13;;;12.80;38.40;;;;;;10360280;28;20237;-71
2023/02/23 21:32:39;;;;;;;10.30;9.30;;;12.70;38.20;;;;;;10357080;28;21028;-71
2023/02/23 21:37:45;;;;;;;12.33;11.03;;;12.70;38.40;;;;;;10359308;28;20232;-71
2023/02/23 21:42:49;;;;;;;12.10;10.87;;;12.60;38.90;;;;;;10359160;28;20258;-71
2023/02/23 21:47:52;;;;;;;12.20;11.00;;;12.50;38.80;;;;;;10359311;28;20237;-71
2023/02/23 21:52:57;;;;;;;14.57;11.87;;;12.50;38.90;;;;;;10357014;28;20233;-71
2023/02/23 21:58:00;;;;;;;14.50;10.63;;;12.50;39.70;;;;;;10356280;28;20241;-71
2023/02/23 22:03:04;;;;;;;12.93;10.97;;;12.40;38.80;;;;;;10359064;28;20643;-71
2023/02/23 22:08:14;;;;;;;12.53;11.33;;;12.40;39.70;;;;;;10357720;28;20244;-71
2023/02/23 22:13:17;;;;;;;13.60;12.07;;;12.40;39.30;;;;;;10358217;28;20321;-71
2023/02/23 22:18:20;;;;;;;13.23;11.83;;;12.40;39.10;;;;;;10358771;28;20646;-71
2023/02/23 22:23:28;;;;;;;12.47;11.17;;;12.30;39.00;;;;;;10357921;28;20293;-71
2023/02/23 22:28:33;;;;;;;15.23;12.63;;;12.10;39.20;;;;;;10358126;28;20238;-71
2023/02/23 22:33:37;;;;;;;14.30;12.47;;;12.10;39.30;;;;;;10358008;28;20237;-71
2023/02/23 22:38:42;;;;;;;13.80;12.33;;;12.10;39.50;;;;;;10358108;28;20601;-71
2023/02/23 22:43:46;;;;;;;13.93;12.43;;;12.10;39.70;;;;;;10358277;28;20222;-71
2023/02/23 22:48:50;;;;;;;12.93;11.70;;;12.10;39.60;;;;;;10354950;28;20282;-71
2023/02/23 22:53:54;;;;;;;12.03;10.90;;;12.10;39.50;;;;;;10356891;28;20604;-71
2023/02/23 22:59:03;;;;;;;13.77;12.37;;;12.10;39.60;;;;;;10356175;28;20229;-71
2023/02/23 23:04:09;;;;;;;13.27;11.90;;;12.10;39.50;;;;;;10357875;28;20295;-71
2023/02/23 23:09:15;;;;;;;11.83;10.33;;;12.00;40.10;;;;;;10355638;28;20962;-71
2023/02/23 23:14:19;;;;;;;13.53;12.13;;;12.00;39.60;;;;;;10351745;28;20636;-71
2023/02/23 23:19:24;;;;;;;13.40;12.13;;;12.00;39.50;;;;;;10356861;28;20296;-71
2023/02/23 23:24:29;;;;;;;13.00;11.77;;;12.00;39.80;;;;;;10356473;28;20285;-71
2023/02/23 23:29:32;;;;;;;12.73;11.43;;;11.90;39.80;;;;;;10360756;28;20979;-70
2023/02/23 23:34:35;;;;;;;12.87;11.57;;;11.90;39.60;;;;;;10363591;28;20235;-71
2023/02/23 23:39:40;;;;;;;12.80;11.33;;;11.90;39.70;;;;;;10365147;28;20231;-71
2023/02/23 23:44:44;;;;;;;12.80;11.50;;;11.80;40.00;;;;;;10363682;28;20230;-71
2023/02/23 23:49:47;;;;;;;12.70;11.50;;;11.80;40.00;;;;;;10364123;28;20238;-71
2023/02/23 23:54:51;;;;;;;12.47;11.17;;;11.80;40.00;;;;;;10362411;28;21013;-71
2023/02/23 23:59:55;;;;;;;11.23;10.13;;;11.80;40.20;;;;;;10364526;28;20234;-71
